createdAt,value
2023-04-18T00:00:50.391Z,0
2023-04-18T00:02:06.691Z,0
2023-04-18T00:03:22.974Z,0
2023-04-18T00:04:39.275Z,0
2023-04-18T00:05:55.496Z,0
2023-04-18T00:07:10.886Z,0
2023-04-18T00:08:27.310Z,0
2023-04-18T00:09:42.613Z,0
2023-04-18T00:10:57.931Z,0
2023-04-18T00:12:14.152Z,0
2023-04-18T00:13:30.508Z,0
2023-04-18T00:14:46.817Z,0
2023-04-18T00:16:03.105Z,0
2023-04-18T00:17:19.403Z,0
2023-04-18T00:18:35.689Z,0
2023-04-18T00:19:51.921Z,0
2023-04-18T00:21:08.203Z,0
2023-04-18T00:22:24.566Z,0
2023-04-18T00:23:40.803Z,0
2023-04-18T00:24:57.167Z,0
2023-04-18T00:26:13.395Z,0
2023-04-18T00:27:28.774Z,0
2023-04-18T00:28:44.993Z,0
2023-04-18T00:30:01.347Z,0
2023-04-18T00:31:17.643Z,0
2023-04-18T00:32:33.933Z,0
2023-04-18T00:33:50.230Z,0
2023-04-18T00:35:06.471Z,0
2023-04-18T00:36:22.818Z,0
2023-04-18T00:37:38.068Z,0
2023-04-18T00:38:53.444Z,0
2023-04-18T00:40:09.752Z,0
2023-04-18T00:41:26.031Z,0
2023-04-18T00:42:42.336Z,0
2023-04-18T00:43:58.626Z,0
2023-04-18T00:45:14.932Z,0
2023-04-18T00:46:31.208Z,0
2023-04-18T00:47:47.514Z,0
2023-04-18T00:49:03.742Z,0
2023-04-18T00:50:20.087Z,0
2023-04-18T00:51:36.382Z,0
2023-04-18T00:52:52.696Z,0
2023-04-18T00:54:08.970Z,0
2023-04-18T00:55:24.295Z,0
2023-04-18T00:56:40.506Z,0
2023-04-18T00:57:56.805Z,0
2023-04-18T00:59:13.165Z,0
2023-04-18T01:00:29.473Z,0
2023-04-18T01:01:45.755Z,0
2023-04-18T01:03:02.049Z,0
2023-04-18T01:04:17.293Z,0
2023-04-18T01:05:32.000Z,0
2023-04-18T01:06:47.934Z,0
2023-04-18T01:08:03.317Z,0
2023-04-18T01:09:18.617Z,0
2023-04-18T01:10:33.934Z,0
2023-04-18T01:11:49.171Z,0
2023-04-18T01:13:05.475Z,0
2023-04-18T01:14:21.760Z,0
2023-04-18T01:15:38.127Z,0
2023-04-18T01:16:54.425Z,0
2023-04-18T01:18:10.729Z,0
2023-04-18T01:19:27.008Z,0
2023-04-18T01:20:43.308Z,0
2023-04-18T01:21:59.529Z,0
2023-04-18T01:23:15.827Z,0
2023-04-18T01:24:32.113Z,0
2023-04-18T01:25:48.478Z,0
2023-04-18T01:27:04.704Z,0
2023-04-18T01:28:20.079Z,0
2023-04-18T01:29:36.376Z,0
2023-04-18T01:30:52.681Z,0
2023-04-18T01:32:08.967Z,0
2023-04-18T01:33:25.274Z,0
2023-04-18T01:34:41.556Z,0
2023-04-18T01:35:56.868Z,0
2023-04-18T01:37:12.117Z,0
2023-04-18T01:38:27.508Z,0
2023-04-18T01:39:42.812Z,0
2023-04-18T01:40:59.095Z,0
2023-04-18T01:42:15.334Z,0
2023-04-18T01:43:31.684Z,0
2023-04-18T01:44:47.979Z,0
2023-04-18T01:46:04.278Z,0
2023-04-18T01:47:20.578Z,0
2023-04-18T01:49:53.169Z,0
2023-04-18T01:51:09.448Z,0
2023-04-18T01:52:25.742Z,0
2023-04-18T01:53:42.037Z,0
2023-04-18T01:54:58.331Z,0
2023-04-18T01:56:13.649Z,0
2023-04-18T01:57:29.950Z,0
2023-04-18T01:58:46.165Z,0
2023-04-18T02:00:02.525Z,0
2023-04-18T02:01:18.827Z,0
2023-04-18T02:02:35.062Z,0
2023-04-18T02:03:51.416Z,0
2023-04-18T02:05:07.700Z,0
2023-04-18T02:06:23.033Z,0
2023-04-18T02:07:38.264Z,0
2023-04-18T02:08:53.583Z,0
2023-04-18T02:10:08.971Z,0
2023-04-18T02:11:25.249Z,0
2023-04-18T02:12:41.553Z,0
2023-04-18T02:13:57.843Z,0
2023-04-18T02:15:14.138Z,0
2023-04-18T02:16:30.437Z,0
2023-04-18T02:17:46.717Z,0
2023-04-18T02:19:03.012Z,0
2023-04-18T02:20:19.317Z,0
2023-04-18T02:21:35.606Z,0
2023-04-18T02:22:51.899Z,0
2023-04-18T02:24:08.200Z,0
2023-04-18T02:25:24.490Z,0
2023-04-18T02:26:39.790Z,0
2023-04-18T02:27:56.089Z,0
2023-04-18T02:29:11.402Z,0
2023-04-18T02:30:26.709Z,0
2023-04-18T02:31:43.017Z,0
2023-04-18T02:32:58.327Z,0
2023-04-18T02:34:13.650Z,0
2023-04-18T02:35:29.938Z,0
2023-04-18T02:36:46.225Z,0
2023-04-18T02:38:02.527Z,0
2023-04-18T02:39:18.821Z,0
2023-04-18T02:40:35.106Z,0
2023-04-18T02:41:51.413Z,0
2023-04-18T02:43:07.696Z,0
2023-04-18T02:44:23.999Z,0
2023-04-18T02:45:40.288Z,0
2023-04-18T02:46:56.590Z,0
2023-04-18T02:48:12.884Z,0
2023-04-18T02:49:29.169Z,0
2023-04-18T02:50:44.472Z,0
2023-04-18T02:52:00.780Z,0
2023-04-18T02:53:17.060Z,0
2023-04-18T02:54:33.354Z,0
2023-04-18T02:55:49.664Z,0
2023-04-18T02:57:05.958Z,0
2023-04-18T02:58:22.237Z,0
2023-04-18T02:59:37.566Z,0
2023-04-18T03:00:52.876Z,0
2023-04-18T03:02:08.185Z,0
2023-04-18T03:03:23.487Z,0
2023-04-18T03:04:39.795Z,0
2023-04-18T03:05:56.086Z,0
2023-04-18T03:07:12.373Z,0
2023-04-18T03:08:28.674Z,0
2023-04-18T03:09:44.970Z,0
2023-04-18T03:11:01.265Z,0
2023-04-18T03:12:17.557Z,0
2023-04-18T03:13:33.842Z,0
2023-04-18T03:14:50.139Z,0
2023-04-18T03:16:06.439Z,0
2023-04-18T03:17:22.741Z,0
2023-04-18T03:18:39.034Z,0
2023-04-18T03:19:54.326Z,0
2023-04-18T03:21:10.621Z,0
2023-04-18T03:22:26.925Z,0
2023-04-18T03:23:43.221Z,0
2023-04-18T03:24:59.511Z,0
2023-04-18T03:26:15.810Z,0
2023-04-18T03:27:32.097Z,0
2023-04-18T03:28:47.414Z,0
2023-04-18T03:30:02.737Z,0
2023-04-18T03:31:19.030Z,0
2023-04-18T03:32:35.311Z,0
2023-04-18T03:33:51.604Z,0
2023-04-18T03:35:07.894Z,0
2023-04-18T03:36:24.198Z,0
2023-04-18T03:37:40.485Z,0
2023-04-18T03:38:56.781Z,0
2023-04-18T03:40:13.070Z,0
2023-04-18T03:41:29.367Z,0
2023-04-18T03:42:45.672Z,0
2023-04-18T03:44:01.956Z,0
2023-04-18T03:45:18.250Z,0
2023-04-18T03:46:33.507Z,1
2023-04-18T03:47:49.808Z,0
2023-04-18T03:49:06.114Z,0
2023-04-18T03:50:22.360Z,1
2023-04-18T03:51:38.591Z,1
2023-04-18T03:52:54.880Z,0
2023-04-18T03:54:11.133Z,2
2023-04-18T03:55:26.393Z,2
2023-04-18T03:56:41.668Z,1
2023-04-18T03:57:57.894Z,2
2023-04-18T03:59:14.130Z,2
2023-04-18T04:00:30.382Z,3
2023-04-18T04:01:46.619Z,2
2023-04-18T04:03:02.866Z,8
2023-04-18T04:04:19.094Z,10
2023-04-18T04:05:35.333Z,11
2023-04-18T04:06:51.572Z,10
2023-04-18T04:08:07.814Z,11
2023-04-18T04:09:24.065Z,13
2023-04-18T04:10:40.286Z,15
2023-04-18T04:11:56.535Z,17
2023-04-18T04:13:11.791Z,22
2023-04-18T04:14:28.049Z,25
2023-04-18T04:15:44.280Z,29
2023-04-18T04:17:00.517Z,31
2023-04-18T04:18:16.752Z,37
2023-04-18T04:19:32.993Z,43
2023-04-18T04:20:49.229Z,47
2023-04-18T04:22:04.495Z,54
2023-04-18T04:23:19.748Z,61
2023-04-18T04:24:35.017Z,83
2023-04-18T04:25:50.267Z,83
2023-04-18T04:27:06.500Z,100
2023-04-18T04:28:22.743Z,110
2023-04-18T04:29:38.981Z,108
2023-04-18T04:30:55.232Z,106
2023-04-18T04:32:11.470Z,120
2023-04-18T04:33:27.720Z,136
2023-04-18T04:34:43.944Z,132
2023-04-18T04:36:00.182Z,130
2023-04-18T04:37:16.433Z,133
2023-04-18T04:38:32.667Z,119
2023-04-18T04:39:48.910Z,172
2023-04-18T04:41:05.159Z,185
2023-04-18T04:42:20.405Z,188
2023-04-18T04:43:36.656Z,239
2023-04-18T04:44:52.882Z,227
2023-04-18T04:46:09.126Z,213
2023-04-18T04:47:25.375Z,226
2023-04-18T04:48:41.598Z,225
2023-04-18T04:49:57.842Z,214
2023-04-18T04:51:13.118Z,198
2023-04-18T04:52:28.354Z,182
2023-04-18T04:53:44.613Z,182
2023-04-18T04:55:00.847Z,210
2023-04-18T04:56:17.088Z,203
2023-04-18T04:57:33.326Z,177
2023-04-18T04:58:49.564Z,203
2023-04-18T05:00:05.806Z,242
2023-04-18T05:01:22.052Z,218
2023-04-18T05:02:38.281Z,201
2023-04-18T05:03:54.530Z,187
2023-04-18T05:05:10.766Z,216
2023-04-18T05:06:27.007Z,222
2023-04-18T05:07:43.244Z,239
2023-04-18T05:08:58.510Z,241
2023-04-18T05:10:14.741Z,235
2023-04-18T05:11:30.992Z,269
2023-04-18T05:12:47.213Z,253
2023-04-18T05:14:03.454Z,278
2023-04-18T05:15:19.694Z,265
2023-04-18T05:16:35.941Z,293
2023-04-18T05:17:51.216Z,273
2023-04-18T05:19:06.451Z,279
2023-04-18T05:20:22.700Z,247
2023-04-18T05:22:55.000Z,299
2023-04-18T05:24:11.411Z,323
2023-04-18T05:25:27.662Z,381
2023-04-18T05:26:42.919Z,571
2023-04-18T05:27:59.171Z,480
2023-04-18T05:29:15.393Z,405
2023-04-18T05:30:31.644Z,573
2023-04-18T05:31:47.874Z,496
2023-04-18T05:33:04.128Z,542
2023-04-18T05:34:20.359Z,602
2023-04-18T05:35:36.613Z,818
2023-04-18T05:36:52.834Z,874
2023-04-18T05:38:09.072Z,1030
2023-04-18T05:39:25.337Z,1436
2023-04-18T05:40:41.571Z,1347
2023-04-18T05:41:57.813Z,1368
2023-04-18T05:43:13.075Z,1184
2023-04-18T05:44:29.301Z,1352
2023-04-18T05:45:44.559Z,1476
2023-04-18T05:46:59.807Z,1337
2023-04-18T05:48:15.083Z,1534
2023-04-18T05:49:30.340Z,1541
2023-04-18T05:50:46.584Z,1368
2023-04-18T05:52:02.804Z,947
2023-04-18T05:53:19.058Z,1594
2023-04-18T05:54:35.290Z,1423
2023-04-18T05:55:51.540Z,1349
2023-04-18T05:57:07.784Z,1378
2023-04-18T05:58:24.011Z,1144
2023-04-18T05:59:40.263Z,1067
2023-04-18T06:00:56.497Z,988
2023-04-18T06:02:12.738Z,1002
2023-04-18T06:03:28.980Z,1134
2023-04-18T06:04:45.213Z,1142
2023-04-18T06:06:00.481Z,1242
2023-04-18T06:07:16.712Z,1033
2023-04-18T06:08:32.960Z,1482
2023-04-18T06:09:49.184Z,1503
2023-04-18T06:11:05.425Z,1291
2023-04-18T06:12:21.673Z,1895
2023-04-18T06:13:37.910Z,1458
2023-04-18T06:14:53.163Z,1238
2023-04-18T06:16:08.432Z,1310
2023-04-18T06:17:23.693Z,1679
2023-04-18T06:18:38.949Z,1902
2023-04-18T06:19:54.217Z,1851
2023-04-18T06:21:09.471Z,1393
2023-04-18T06:22:25.704Z,1774
2023-04-18T06:23:41.947Z,2446
2023-04-18T06:24:58.182Z,2493
2023-04-18T06:26:14.418Z,1409
2023-04-18T06:27:30.666Z,2139
2023-04-18T06:28:46.908Z,2616
2023-04-18T06:31:19.396Z,2072
2023-04-18T06:32:35.632Z,3611
2023-04-18T06:33:51.859Z,1864
2023-04-18T06:35:08.113Z,4188
2023-04-18T06:36:24.356Z,3716
2023-04-18T06:38:55.845Z,2196
2023-04-18T06:40:11.097Z,2516
2023-04-18T06:41:26.365Z,2269
2023-04-18T06:42:42.601Z,2015
2023-04-18T06:43:58.847Z,1770
2023-04-18T06:45:15.080Z,1524
2023-04-18T06:46:31.319Z,1352
2023-04-18T06:47:47.570Z,1207
2023-04-18T06:49:03.804Z,1020
2023-04-18T06:50:20.029Z,876
2023-04-18T06:51:36.283Z,895
2023-04-18T06:52:52.529Z,858
2023-04-18T06:54:07.773Z,946
2023-04-18T06:55:23.045Z,886
2023-04-18T06:56:39.272Z,1088
2023-04-18T06:57:55.522Z,1060
2023-04-18T06:59:11.767Z,994
2023-04-18T07:00:27.991Z,915
2023-04-18T07:01:44.239Z,1045
2023-04-18T07:03:00.480Z,1147
2023-04-18T07:04:16.727Z,1191
2023-04-18T07:05:32.959Z,1307
2023-04-18T07:06:49.200Z,1174
2023-04-18T07:08:05.434Z,1317
2023-04-18T07:09:21.678Z,1435
2023-04-18T07:10:37.923Z,1794
2023-04-18T07:11:53.166Z,2275
2023-04-18T07:13:09.415Z,2068
2023-04-18T07:14:25.652Z,2046
2023-04-18T07:15:41.885Z,2000
2023-04-18T07:16:58.144Z,2040
2023-04-18T07:18:14.374Z,1771
2023-04-18T07:19:30.609Z,1984
2023-04-18T07:20:45.869Z,2206
2023-04-18T07:22:01.140Z,1923
2023-04-18T07:24:33.609Z,1956
2023-04-18T07:25:48.885Z,1785
2023-04-18T07:27:04.134Z,1644
2023-04-18T07:28:20.367Z,1722
2023-04-18T07:29:36.608Z,1691
2023-04-18T07:30:52.843Z,1738
2023-04-18T07:32:09.086Z,1754
2023-04-18T07:33:25.328Z,1642
2023-04-18T07:34:41.562Z,1611
2023-04-18T07:35:57.821Z,1429
2023-04-18T07:37:14.051Z,1636
2023-04-18T07:38:30.285Z,2055
2023-04-18T07:39:46.538Z,2100
2023-04-18T07:41:02.784Z,1575
2023-04-18T07:42:19.014Z,1596
2023-04-18T07:43:34.281Z,1684
2023-04-18T07:44:50.511Z,1910
2023-04-18T07:46:06.759Z,1679
2023-04-18T07:47:22.985Z,1668
2023-04-18T07:48:39.232Z,1395
2023-04-18T07:49:55.474Z,1662
2023-04-18T07:51:11.000Z,1637
2023-04-18T07:52:26.974Z,1868
2023-04-18T07:53:42.225Z,2114
2023-04-18T07:54:57.493Z,3195
2023-04-18T07:56:12.742Z,3067
2023-04-18T07:57:28.996Z,1857
2023-04-18T07:58:45.225Z,2591
2023-04-18T08:00:01.465Z,6896
2023-04-18T08:01:17.711Z,8462
2023-04-18T08:02:33.940Z,7196
2023-04-18T08:03:50.194Z,5179
2023-04-18T08:05:06.428Z,4915
2023-04-18T08:06:22.677Z,4543
2023-04-18T08:07:38.905Z,4532
2023-04-18T08:08:55.155Z,4274
2023-04-18T08:10:11.383Z,5228
2023-04-18T08:11:27.640Z,6638
2023-04-18T08:12:42.886Z,7316
2023-04-18T08:13:59.135Z,5631
2023-04-18T08:15:15.361Z,5458
2023-04-18T08:16:31.613Z,4964
2023-04-18T08:17:47.854Z,3745
2023-04-18T08:19:04.089Z,4183
2023-04-18T08:20:20.333Z,4674
2023-04-18T08:21:35.586Z,4205
2023-04-18T08:22:50.843Z,4003
2023-04-18T08:24:07.088Z,3441
2023-04-18T08:25:23.328Z,3018
2023-04-18T08:26:39.562Z,2726
2023-04-18T08:27:55.802Z,2516
2023-04-18T08:29:12.049Z,2196
2023-04-18T08:30:28.293Z,1833
2023-04-18T08:31:44.519Z,2254
2023-04-18T08:33:00.775Z,1925
2023-04-18T08:34:17.006Z,2679
2023-04-18T08:35:33.245Z,2840
2023-04-18T08:36:49.492Z,2452
2023-04-18T08:38:05.718Z,2200
2023-04-18T08:39:20.990Z,2086
2023-04-18T08:40:37.222Z,2194
2023-04-18T08:41:53.456Z,2200
2023-04-18T08:43:09.695Z,2382
2023-04-18T08:44:25.942Z,2752
2023-04-18T08:45:42.186Z,2297
2023-04-18T08:46:58.424Z,1850
2023-04-18T08:48:13.686Z,1568
2023-04-18T08:49:28.933Z,1440
2023-04-18T08:50:44.209Z,1695
2023-04-18T08:51:59.455Z,1636
2023-04-18T08:53:15.694Z,1525
2023-04-18T08:54:31.931Z,1426
2023-04-18T08:55:48.186Z,1574
2023-04-18T08:57:04.426Z,1599
2023-04-18T08:58:20.649Z,1636
2023-04-18T08:59:36.889Z,1707
2023-04-18T09:00:53.144Z,1690
2023-04-18T09:02:09.380Z,1954
2023-04-18T09:03:25.620Z,2110
2023-04-18T09:04:41.850Z,2174
2023-04-18T09:05:58.092Z,1868
2023-04-18T09:07:14.327Z,1892
2023-04-18T09:08:29.599Z,1809
2023-04-18T09:09:45.823Z,1872
2023-04-18T09:11:02.083Z,1877
2023-04-18T09:12:18.314Z,2079
2023-04-18T09:13:34.545Z,2358
2023-04-18T09:14:50.798Z,2203
2023-04-18T09:16:07.028Z,2132
2023-04-18T09:17:22.288Z,1838
2023-04-18T09:18:37.544Z,1630
2023-04-18T09:19:52.813Z,1492
2023-04-18T09:21:08.069Z,1533
2023-04-18T09:22:24.299Z,1626
2023-04-18T09:23:40.548Z,1431
2023-04-18T09:24:56.791Z,1684
2023-04-18T09:26:13.017Z,1708
2023-04-18T09:27:29.263Z,1752
2023-04-18T09:28:45.508Z,1749
2023-04-18T09:30:01.751Z,1891
2023-04-18T09:31:17.995Z,1867
2023-04-18T09:32:34.218Z,1931
2023-04-18T09:33:50.477Z,2276
2023-04-18T09:35:06.705Z,2874
2023-04-18T09:36:22.941Z,2798
2023-04-18T09:37:38.194Z,2044
2023-04-18T09:38:54.442Z,2504
2023-04-18T09:40:10.686Z,2800
2023-04-18T09:41:25.936Z,2658
2023-04-18T09:42:42.186Z,2728
2023-04-18T09:43:58.431Z,3024
2023-04-18T09:45:14.669Z,2384
2023-04-18T09:46:29.936Z,2199
2023-04-18T09:49:01.426Z,2398
2023-04-18T09:50:16.677Z,2499
2023-04-18T09:51:31.930Z,2270
2023-04-18T09:52:48.177Z,2368
2023-04-18T09:54:04.412Z,2989
2023-04-18T09:55:20.657Z,3065
2023-04-18T09:56:36.899Z,2758
2023-04-18T09:57:53.139Z,2882
2023-04-18T09:59:09.388Z,2359
2023-04-18T10:00:25.610Z,2426
2023-04-18T10:01:41.857Z,3165
2023-04-18T10:02:58.099Z,2920
2023-04-18T10:04:14.337Z,2722
2023-04-18T10:05:30.584Z,3005
2023-04-18T10:06:46.828Z,3226
2023-04-18T10:08:02.071Z,3115
2023-04-18T10:09:18.316Z,3661
2023-04-18T10:10:34.564Z,3782
2023-04-18T10:11:50.795Z,3449
2023-04-18T10:13:07.042Z,3193
2023-04-18T10:14:23.272Z,3428
2023-04-18T10:15:39.518Z,3909
2023-04-18T10:16:54.782Z,3816
2023-04-18T10:18:10.023Z,3778
2023-04-18T10:19:26.273Z,3578
2023-04-18T10:20:42.504Z,3551
2023-04-18T10:21:58.756Z,3986
2023-04-18T10:23:14.998Z,3802
2023-04-18T10:24:31.232Z,4191
2023-04-18T10:25:47.469Z,4252
2023-04-18T10:27:03.717Z,4591
2023-04-18T10:28:19.959Z,4393
2023-04-18T10:29:36.185Z,3696
2023-04-18T10:30:52.432Z,3849
2023-04-18T10:32:08.661Z,4180
2023-04-18T10:33:24.905Z,4503
2023-04-18T10:34:40.162Z,4010
2023-04-18T10:35:56.405Z,3389
2023-04-18T10:37:12.641Z,3406
2023-04-18T10:38:28.877Z,3317
2023-04-18T10:39:45.124Z,3177
2023-04-18T10:41:01.363Z,3779
2023-04-18T10:42:17.602Z,4174
2023-04-18T10:43:32.857Z,4017
2023-04-18T10:44:48.122Z,3981
2023-04-18T10:46:03.388Z,4950
2023-04-18T10:47:18.649Z,5589
2023-04-18T10:48:34.883Z,6939
2023-04-18T10:49:51.115Z,6065
2023-04-18T10:51:07.356Z,5384
2023-04-18T10:52:23.588Z,7535
2023-04-18T10:53:39.830Z,7590
2023-04-18T10:54:56.070Z,5444
2023-04-18T10:56:12.323Z,5440
2023-04-18T10:57:28.553Z,5383
2023-04-18T10:58:44.794Z,5586
2023-04-18T11:00:01.027Z,5316
2023-04-18T11:01:17.280Z,4674
2023-04-18T11:02:33.521Z,4375
2023-04-18T11:03:48.772Z,4145
2023-04-18T11:05:05.013Z,6838
2023-04-18T11:06:21.249Z,4936
2023-04-18T11:07:37.487Z,3879
2023-04-18T11:08:53.740Z,4350
2023-04-18T11:10:09.964Z,4138
2023-04-18T11:11:26.219Z,4327
2023-04-18T11:12:41.479Z,4568
2023-04-18T11:13:56.728Z,4777
2023-04-18T11:15:12.001Z,4500
2023-04-18T11:16:27.238Z,4931
2023-04-18T11:17:43.478Z,4321
2023-04-18T11:18:59.000Z,5589
2023-04-18T11:20:15.962Z,4903
2023-04-18T11:21:32.208Z,4242
2023-04-18T11:22:48.436Z,5448
2023-04-18T11:24:04.683Z,4293
2023-04-18T11:25:20.946Z,4543
2023-04-18T11:26:37.166Z,4378
2023-04-18T11:27:53.404Z,5310
2023-04-18T11:29:09.649Z,3653
2023-04-18T11:30:25.876Z,3590
2023-04-18T11:31:42.134Z,4135
2023-04-18T11:32:57.376Z,5594
2023-04-18T11:34:13.622Z,5008
2023-04-18T11:35:29.871Z,3488
2023-04-18T11:36:46.095Z,2586
2023-04-18T11:38:02.339Z,1733
2023-04-18T11:39:18.586Z,1794
2023-04-18T11:40:34.824Z,2103
2023-04-18T11:41:50.087Z,2039
2023-04-18T11:43:05.327Z,1810
2023-04-18T11:44:21.579Z,1945
2023-04-18T11:45:37.818Z,1804
2023-04-18T11:46:54.052Z,2377
2023-04-18T11:48:10.288Z,3306
2023-04-18T11:49:26.531Z,2630
2023-04-18T11:50:42.768Z,2712
2023-04-18T11:51:59.009Z,3383
2023-04-18T11:53:15.249Z,2752
2023-04-18T11:54:31.506Z,1902
2023-04-18T11:55:47.739Z,1946
2023-04-18T11:57:03.975Z,2126
2023-04-18T11:58:20.219Z,1772
2023-04-18T11:59:35.468Z,1682
2023-04-18T12:00:51.718Z,1560
2023-04-18T12:02:07.956Z,1494
2023-04-18T12:03:24.189Z,1588
2023-04-18T12:04:40.432Z,1702
2023-04-18T12:05:56.670Z,1828
2023-04-18T12:07:12.912Z,1406
2023-04-18T12:08:28.166Z,1120
2023-04-18T12:09:43.431Z,1755
2023-04-18T12:10:59.674Z,2405
2023-04-18T12:12:15.918Z,2462
2023-04-18T12:13:32.139Z,2041
2023-04-18T12:14:48.392Z,1580
2023-04-18T12:16:04.631Z,1312
2023-04-18T12:17:20.872Z,1195
2023-04-18T12:18:37.113Z,1202
2023-04-18T12:19:53.352Z,993
2023-04-18T12:21:09.577Z,827
2023-04-18T12:22:25.828Z,918
2023-04-18T12:23:42.067Z,1074
2023-04-18T12:24:58.317Z,1240
2023-04-18T12:26:13.561Z,1285
2023-04-18T12:27:29.802Z,1280
2023-04-18T12:28:46.033Z,1191
2023-04-18T12:30:02.286Z,1138
2023-04-18T12:31:18.513Z,1052
2023-04-18T12:32:34.772Z,1067
2023-04-18T12:33:50.993Z,1138
2023-04-18T12:35:06.259Z,1123
2023-04-18T12:36:21.513Z,1079
2023-04-18T12:37:36.778Z,1047
2023-04-18T12:38:52.037Z,1094
2023-04-18T12:40:07.306Z,1087
2023-04-18T12:41:22.559Z,1057
2023-04-18T12:42:38.784Z,1063
2023-04-18T12:43:55.026Z,1099
2023-04-18T12:45:11.268Z,1079
2023-04-18T12:46:27.511Z,1007
2023-04-18T12:47:43.758Z,979
2023-04-18T12:48:59.986Z,957
2023-04-18T12:50:16.242Z,801
2023-04-18T12:51:32.476Z,726
2023-04-18T12:52:48.717Z,681
2023-04-18T12:54:04.943Z,662
2023-04-18T12:55:21.184Z,684
2023-04-18T12:56:37.430Z,689
2023-04-18T12:57:52.681Z,711
2023-04-18T12:59:08.932Z,725
2023-04-18T13:00:25.000Z,769
2023-04-18T13:01:41.409Z,815
2023-04-18T13:02:57.653Z,869
2023-04-18T13:04:13.885Z,950
2023-04-18T13:05:30.120Z,958
2023-04-18T13:06:45.380Z,905
2023-04-18T13:08:00.649Z,852
2023-04-18T13:09:15.909Z,803
2023-04-18T13:10:31.169Z,724
2023-04-18T13:11:47.397Z,650
2023-04-18T13:13:03.642Z,645
2023-04-18T13:14:19.882Z,665
2023-04-18T13:15:36.119Z,671
2023-04-18T13:16:52.366Z,650
2023-04-18T13:18:08.613Z,644
2023-04-18T13:19:24.839Z,628
2023-04-18T13:20:41.089Z,626
2023-04-18T13:21:57.331Z,604
2023-04-18T13:23:13.554Z,653
2023-04-18T13:24:29.797Z,719
2023-04-18T13:25:46.031Z,758
2023-04-18T13:27:01.301Z,771
2023-04-18T13:28:17.530Z,815
2023-04-18T13:29:33.782Z,894
2023-04-18T13:30:50.008Z,865
2023-04-18T13:32:06.248Z,811
2023-04-18T13:33:22.487Z,782
2023-04-18T13:34:38.737Z,733
2023-04-18T13:35:54.006Z,782
2023-04-18T13:37:09.263Z,793
2023-04-18T13:38:24.525Z,807
2023-04-18T13:39:39.762Z,851
2023-04-18T13:40:56.008Z,832
2023-04-18T13:42:12.246Z,862
2023-04-18T13:43:28.491Z,884
2023-04-18T13:44:44.731Z,897
2023-04-18T13:46:00.963Z,888
2023-04-18T13:47:17.216Z,887
2023-04-18T13:48:33.458Z,960
2023-04-18T13:49:49.703Z,894
2023-04-18T13:51:05.936Z,932
2023-04-18T13:52:22.165Z,1081
2023-04-18T13:53:38.415Z,1185
2023-04-18T13:54:54.657Z,995
2023-04-18T13:56:09.906Z,961
2023-04-18T13:57:26.157Z,1004
2023-04-18T13:58:42.389Z,848
2023-04-18T13:59:58.632Z,825
2023-04-18T14:01:14.876Z,1034
2023-04-18T14:02:31.101Z,1015
2023-04-18T14:03:47.349Z,1193
2023-04-18T14:05:02.609Z,1292
2023-04-18T14:06:17.871Z,1410
2023-04-18T14:07:34.116Z,1487
2023-04-18T14:08:50.343Z,1725
2023-04-18T14:10:06.581Z,1653
2023-04-18T14:11:22.822Z,1366
2023-04-18T14:12:39.071Z,1212
2023-04-18T14:13:55.304Z,1173
2023-04-18T14:15:11.538Z,1255
2023-04-18T14:16:27.784Z,1284
2023-04-18T14:17:44.034Z,1379
2023-04-18T14:19:00.275Z,1393
2023-04-18T14:20:16.518Z,1188
2023-04-18T14:21:32.743Z,966
2023-04-18T14:22:47.998Z,922
2023-04-18T14:24:04.248Z,1085
2023-04-18T14:25:20.484Z,919
2023-04-18T14:26:36.718Z,682
2023-04-18T14:27:52.958Z,797
2023-04-18T14:30:25.438Z,1159
2023-04-18T14:31:41.690Z,882
2023-04-18T14:32:56.936Z,877
2023-04-18T14:34:12.196Z,890
2023-04-18T14:35:28.434Z,622
2023-04-18T14:36:44.678Z,693
2023-04-18T14:38:00.929Z,704
2023-04-18T14:39:17.152Z,874
2023-04-18T14:40:33.402Z,854
2023-04-18T14:41:49.638Z,966
2023-04-18T14:43:05.880Z,761
2023-04-18T14:44:22.117Z,877
2023-04-18T14:45:38.355Z,1067
2023-04-18T14:46:54.590Z,1156
2023-04-18T14:48:10.834Z,1015
2023-04-18T14:49:27.078Z,935
2023-04-18T14:50:42.333Z,812
2023-04-18T14:51:58.565Z,1124
2023-04-18T14:53:14.812Z,1000
2023-04-18T14:54:31.045Z,744
2023-04-18T14:55:47.288Z,1038
2023-04-18T14:57:03.535Z,931
2023-04-18T14:58:19.774Z,1412
2023-04-18T14:59:35.046Z,1305
2023-04-18T15:00:50.289Z,1399
2023-04-18T15:02:05.550Z,1024
2023-04-18T15:03:20.813Z,1134
2023-04-18T15:04:36.072Z,1240
2023-04-18T15:05:51.329Z,952
2023-04-18T15:07:07.566Z,1203
2023-04-18T15:08:23.800Z,870
2023-04-18T15:09:40.047Z,801
2023-04-18T15:10:56.277Z,808
2023-04-18T15:12:12.525Z,631
2023-04-18T15:13:28.760Z,626
2023-04-18T15:14:45.001Z,535
2023-04-18T15:16:01.243Z,533
2023-04-18T15:17:17.492Z,564
2023-04-18T15:18:33.731Z,759
2023-04-18T15:19:49.961Z,684
2023-04-18T15:21:06.197Z,982
2023-04-18T15:22:21.471Z,860
2023-04-18T15:23:37.709Z,474
2023-04-18T15:24:53.950Z,850
2023-04-18T15:26:10.185Z,686
2023-04-18T15:27:26.423Z,578
2023-04-18T15:28:42.676Z,432
2023-04-18T15:29:58.906Z,510
2023-04-18T15:31:14.173Z,675
2023-04-18T15:32:29.428Z,675
2023-04-18T15:33:44.697Z,558
2023-04-18T15:34:59.927Z,534
2023-04-18T15:36:16.178Z,734
2023-04-18T15:37:32.420Z,873
2023-04-18T15:38:48.657Z,888
2023-04-18T15:40:04.891Z,766
2023-04-18T15:41:21.140Z,953
2023-04-18T15:42:37.365Z,944
2023-04-18T15:43:53.608Z,760
2023-04-18T15:45:09.851Z,720
2023-04-18T15:46:26.094Z,655
2023-04-18T15:47:42.000Z,566
2023-04-18T15:48:58.579Z,433
2023-04-18T15:50:14.813Z,488
2023-04-18T15:51:30.066Z,348
2023-04-18T15:52:46.306Z,355
2023-04-18T15:54:02.555Z,406
2023-04-18T15:55:18.787Z,403
2023-04-18T15:56:35.026Z,445
2023-04-18T15:57:51.261Z,447
2023-04-18T15:59:07.502Z,473
2023-04-18T16:00:22.785Z,512
2023-04-18T16:01:38.030Z,523
2023-04-18T16:02:54.264Z,435
2023-04-18T16:04:09.533Z,485
2023-04-18T16:05:24.777Z,535
2023-04-18T16:06:41.027Z,601
2023-04-18T16:07:57.271Z,509
2023-04-18T16:09:13.506Z,446
2023-04-18T16:10:29.737Z,497
2023-04-18T16:11:45.977Z,575
2023-04-18T16:13:02.223Z,584
2023-04-18T16:14:18.463Z,622
2023-04-18T16:15:34.714Z,599
2023-04-18T16:16:50.945Z,574
2023-04-18T16:19:23.419Z,570
2023-04-18T16:20:39.671Z,590
2023-04-18T16:21:54.913Z,572
2023-04-18T16:23:11.152Z,503
2023-04-18T16:24:27.399Z,455
2023-04-18T16:25:43.643Z,427
2023-04-18T16:26:59.880Z,401
2023-04-18T16:28:16.124Z,403
2023-04-18T16:29:32.363Z,463
2023-04-18T16:30:48.593Z,447
2023-04-18T16:32:03.872Z,409
2023-04-18T16:33:19.124Z,412
2023-04-18T16:34:35.359Z,386
2023-04-18T16:35:50.617Z,322
2023-04-18T16:37:05.882Z,283
2023-04-18T16:38:22.113Z,285
2023-04-18T16:39:38.358Z,290
2023-04-18T16:40:54.597Z,276
2023-04-18T16:42:10.827Z,267
2023-04-18T16:43:27.072Z,246
2023-04-18T16:44:43.319Z,226
2023-04-18T16:45:59.555Z,220
2023-04-18T16:47:15.787Z,210
2023-04-18T16:48:32.037Z,197
2023-04-18T16:49:48.278Z,196
2023-04-18T16:51:04.507Z,191
2023-04-18T16:52:20.752Z,181
2023-04-18T16:53:36.008Z,182
2023-04-18T16:54:52.248Z,175
2023-04-18T16:56:08.480Z,174
2023-04-18T16:57:24.730Z,165
2023-04-18T16:58:40.969Z,160
2023-04-18T16:59:57.223Z,156
2023-04-18T17:01:13.453Z,150
2023-04-18T17:02:28.708Z,155
2023-04-18T17:03:43.963Z,155
2023-04-18T17:05:00.224Z,154
2023-04-18T17:06:15.474Z,150
2023-04-18T17:07:30.738Z,158
2023-04-18T17:08:46.954Z,167
2023-04-18T17:10:03.215Z,166
2023-04-18T17:11:19.434Z,164
2023-04-18T17:12:35.674Z,158
2023-04-18T17:13:51.921Z,162
2023-04-18T17:15:08.155Z,175
2023-04-18T17:16:24.401Z,183
2023-04-18T17:17:40.641Z,176
2023-04-18T17:18:56.874Z,169
2023-04-18T17:20:13.133Z,168
2023-04-18T17:21:29.358Z,161
2023-04-18T17:22:45.593Z,152
2023-04-18T17:24:00.860Z,135
2023-04-18T17:25:17.094Z,136
2023-04-18T17:26:33.329Z,131
2023-04-18T17:27:49.568Z,128
2023-04-18T17:29:05.816Z,124
2023-04-18T17:30:22.055Z,123
2023-04-18T17:31:38.305Z,121
2023-04-18T17:32:53.560Z,116
2023-04-18T17:34:08.817Z,109
2023-04-18T17:35:25.052Z,96
2023-04-18T17:36:40.324Z,86
2023-04-18T17:37:55.574Z,74
2023-04-18T17:39:11.826Z,66